Time;durP1;ratioP1;P1;durP2;ratioP2;P2;SDS_P1;SDS_P2;PMS_P1;PMS_P2;Temp;Humidity;BMP_temperature;BMP_pressure;BME280_temperature;BME280_humidity;BME280_pressure;Samples;Min_cycle;Max_cycle;Signal;HPM_P1;HPM_P2
2023/05/29 00:00:13;;;;;;;2.38;0.55;;;11.60;99.90;;;;;;7397043;19;20267;-73
2023/05/29 00:02:44;;;;;;;1.75;0.40;;;11.50;99.90;;;;;;7406687;19;19922;-73
2023/05/29 00:05:16;;;;;;;2.08;0.55;;;11.50;99.90;;;;;;7406945;19;19930;-73
2023/05/29 00:07:48;;;;;;;3.05;0.55;;;11.40;99.90;;;;;;7406918;19;20303;-73
2023/05/29 00:10:17;;;;;;;1.77;0.68;;;11.50;99.90;;;;;;7406116;19;19910;-73
2023/05/29 00:12:46;;;;;;;1.20;0.60;;;11.20;99.90;;;;;;7402988;19;19922;-73
2023/05/29 00:15:15;;;;;;;1.88;0.43;;;11.30;99.90;;;;;;7381366;19;19968;-73
2023/05/29 00:17:44;;;;;;;1.40;0.52;;;11.30;99.90;;;;;;7403958;19;19939;-73
2023/05/29 00:20:17;;;;;;;2.25;0.52;;;11.10;99.90;;;;;;7406500;19;20336;-73
2023/05/29 00:22:46;;;;;;;2.45;0.50;;;11.30;99.90;;;;;;7407214;19;19918;-73
2023/05/29 00:25:15;;;;;;;4.70;0.88;;;11.20;99.90;;;;;;7408080;19;19922;-73
2023/05/29 00:27:44;;;;;;;2.50;0.60;;;11.10;99.90;;;;;;7407164;19;19918;-73
2023/05/29 00:30:14;;;;;;;2.20;0.50;;;11.00;99.90;;;;;;7407903;19;19927;-73
2023/05/29 00:32:43;;;;;;;3.47;0.63;;;11.20;99.90;;;;;;7402847;19;19956;-73
2023/05/29 00:35:12;;;;;;;1.77;0.50;;;11.00;99.90;;;;;;7408196;19;19922;-73
2023/05/29 00:37:44;;;;;;;1.90;0.50;;;10.90;99.90;;;;;;7407035;19;19946;-73
2023/05/29 00:40:13;;;;;;;2.65;0.50;;;10.90;99.90;;;;;;7408117;19;19982;-72
2023/05/29 00:42:42;;;;;;;2.22;0.60;;;11.10;99.90;;;;;;7405610;19;19987;-73
2023/05/29 00:45:13;;;;;;;2.80;0.60;;;11.00;99.90;;;;;;7406938;19;19926;-73
2023/05/29 00:47:42;;;;;;;2.35;0.77;;;10.90;99.90;;;;;;7403212;19;19994;-71
2023/05/29 00:50:13;;;;;;;1.30;0.50;;;10.90;99.90;;;;;;7404850;19;19982;-73
2023/05/29 00:52:46;;;;;;;4.15;0.60;;;10.80;99.90;;;;;;7405081;19;19974;-73
2023/05/29 00:55:17;;;;;;;2.33;0.57;;;10.90;99.90;;;;;;7407519;19;19922;-74
2023/05/29 00:57:47;;;;;;;3.22;0.65;;;10.90;99.90;;;;;;7406213;19;19922;-73
2023/05/29 01:00:18;;;;;;;2.90;0.60;;;10.90;99.90;;;;;;7405481;19;19910;-73
2023/05/29 01:02:48;;;;;;;2.28;0.75;;;10.80;99.90;;;;;;7406550;19;19930;-73
2023/05/29 01:05:19;;;;;;;2.08;0.38;;;10.70;99.90;;;;;;7405767;19;20329;-73
2023/05/29 01:07:51;;;;;;;2.13;0.50;;;10.70;99.90;;;;;;7406200;19;19919;-72
2023/05/29 01:10:21;;;;;;;2.05;0.50;;;10.70;99.90;;;;;;7406740;19;20356;-73
2023/05/29 01:12:57;;;;;;;1.05;0.60;;;10.70;99.90;;;;;;7404973;19;20333;-73
2023/05/29 01:15:35;;;;;;;2.80;0.60;;;10.70;99.90;;;;;;7405819;19;19914;-73
2023/05/29 01:18:24;;;;;;;2.83;0.73;;;10.70;99.90;;;;;;7405468;19;19930;-73
2023/05/29 01:20:59;;;;;;;2.22;0.55;;;10.50;99.90;;;;;;7403788;19;19938;-73
2023/05/29 01:23:56;;;;;;;2.33;0.52;;;10.60;99.90;;;;;;7405072;19;19922;-73
2023/05/29 01:26:44;;;;;;;1.83;0.70;;;10.60;99.90;;;;;;7405038;19;19927;-73
2023/05/29 01:29:15;;;;;;;3.72;0.70;;;10.60;99.90;;;;;;7404346;19;19966;-72
2023/05/29 01:31:46;;;;;;;2.70;0.50;;;10.40;99.90;;;;;;7405563;19;20424;-73
2023/05/29 01:34:15;;;;;;;1.17;0.45;;;10.60;99.90;;;;;;7400882;19;19935;-73
2023/05/29 01:36:46;;;;;;;4.18;0.88;;;10.50;99.90;;;;;;7405187;19;19926;-73
2023/05/29 01:39:16;;;;;;;2.42;0.70;;;10.40;99.90;;;;;;7404715;19;19939;-73
2023/05/29 01:41:49;;;;;;;3.10;0.70;;;10.40;99.90;;;;;;7405301;19;19914;-73
2023/05/29 01:44:19;;;;;;;1.52;0.50;;;10.40;99.90;;;;;;7406081;19;19986;-72
2023/05/29 01:46:48;;;;;;;1.67;0.60;;;10.40;99.90;;;;;;7403958;19;20281;-73
2023/05/29 01:49:19;;;;;;;1.70;0.55;;;10.30;99.90;;;;;;7401462;19;19919;-72
2023/05/29 01:51:48;;;;;;;1.63;0.70;;;10.20;99.90;;;;;;7405848;19;19910;-73
2023/05/29 01:54:17;;;;;;;1.65;0.43;;;10.20;99.90;;;;;;7403512;19;20340;-73
2023/05/29 01:56:50;;;;;;;2.08;0.50;;;10.10;99.90;;;;;;7404043;19;19923;-73
2023/05/29 01:59:19;;;;;;;2.22;0.90;;;10.20;99.90;;;;;;7404571;19;20158;-74
2023/05/29 02:01:50;;;;;;;2.28;0.43;;;10.10;99.90;;;;;;7403606;19;19919;-73
2023/05/29 02:04:19;;;;;;;1.98;0.60;;;10.10;99.90;;;;;;7405152;19;19915;-73
2023/05/29 02:06:48;;;;;;;2.03;0.50;;;10.20;99.90;;;;;;7403804;19;19960;-73
2023/05/29 02:09:22;;;;;;;1.35;0.47;;;10.10;99.90;;;;;;7400217;19;19966;-72
2023/05/29 02:11:54;;;;;;;1.52;0.50;;;10.20;99.90;;;;;;7403741;19;19944;-72
2023/05/29 02:14:24;;;;;;;1.63;0.35;;;10.10;99.90;;;;;;7402506;19;19910;-73
2023/05/29 02:16:53;;;;;;;2.28;0.73;;;10.10;99.90;;;;;;7403863;19;19935;-73
2023/05/29 02:19:25;;;;;;;3.22;0.50;;;10.20;99.90;;;;;;7402823;19;20304;-73
2023/05/29 02:21:53;;;;;;;;;;;10.00;99.90;;;;;;7406295;19;19950;-72
2023/05/29 02:24:22;;;;;;;1.38;0.43;;;10.10;99.90;;;;;;7403334;19;20330;-72
2023/05/29 02:26:54;;;;;;;1.20;0.50;;;10.00;99.90;;;;;;7404672;19;20385;-72
2023/05/29 02:29:23;;;;;;;2.33;0.50;;;10.00;99.90;;;;;;7403003;19;19952;-73
2023/05/29 02:31:52;;;;;;;2.72;0.70;;;10.00;99.90;;;;;;7403066;19;19940;-72
2023/05/29 02:34:22;;;;;;;2.88;0.50;;;10.10;99.90;;;;;;7401928;19;19918;-72
2023/05/29 02:36:51;;;;;;;1.83;0.57;;;9.90;99.90;;;;;;7404209;19;19923;-73
2023/05/29 02:39:20;;;;;;;1.55;0.45;;;10.00;99.90;;;;;;7400976;19;19919;-73
2023/05/29 02:41:49;;;;;;;2.13;0.68;;;10.00;99.90;;;;;;7402738;19;20345;-73
2023/05/29 02:44:21;;;;;;;2.47;0.43;;;10.00;99.90;;;;;;7401886;19;19914;-73
2023/05/29 02:46:50;;;;;;;1.35;0.40;;;10.00;99.90;;;;;;7403488;19;19923;-73
2023/05/29 02:49:19;;;;;;;1.58;0.40;;;10.00;99.90;;;;;;7401054;19;20833;-73
2023/05/29 02:51:48;;;;;;;3.25;0.80;;;9.90;99.90;;;;;;7404628;19;19926;-72
2023/05/29 02:54:17;;;;;;;1.40;0.57;;;10.00;99.90;;;;;;7401091;19;19935;-72
2023/05/29 02:56:46;;;;;;;2.13;0.50;;;10.00;99.90;;;;;;7404085;19;19919;-72
2023/05/29 02:59:15;;;;;;;2.60;0.52;;;10.00;99.90;;;;;;7400902;19;19918;-72
2023/05/29 03:01:47;;;;;;;2.30;0.50;;;10.00;99.90;;;;;;7401222;19;19946;-72
2023/05/29 03:04:17;;;;;;;2.17;0.40;;;10.00;99.90;;;;;;7402384;19;19925;-73
2023/05/29 03:06:47;;;;;;;2.30;0.63;;;9.90;99.90;;;;;;7403233;19;19914;-73
2023/05/29 03:09:16;;;;;;;1.27;0.40;;;10.00;99.90;;;;;;7401451;19;19926;-72
2023/05/29 03:11:47;;;;;;;2.67;0.60;;;9.90;99.90;;;;;;7402882;19;19923;-73
2023/05/29 03:14:16;;;;;;;0.98;0.30;;;10.00;99.90;;;;;;7402061;19;19924;-72
2023/05/29 03:16:49;;;;;;;2.50;0.60;;;9.90;99.90;;;;;;7401932;19;19918;-73
2023/05/29 03:19:18;;;;;;;1.02;0.50;;;9.90;99.90;;;;;;7398222;19;19986;-73
2023/05/29 03:21:47;;;;;;;1.83;0.50;;;9.80;99.90;;;;;;7401868;19;19919;-72
2023/05/29 03:24:16;;;;;;;1.30;0.40;;;9.70;99.90;;;;;;7402417;19;19935;-72
2023/05/29 03:26:45;;;;;;;1.40;0.80;;;9.70;99.90;;;;;;7402381;19;19978;-72
2023/05/29 03:29:14;;;;;;;2.75;0.70;;;9.80;99.90;;;;;;7401784;19;19927;-72
2023/05/29 03:31:43;;;;;;;1.83;0.60;;;9.60;99.90;;;;;;7402286;19;19930;-72
2023/05/29 03:34:15;;;;;;;1.85;0.40;;;9.60;99.90;;;;;;7399819;19;19927;-72
2023/05/29 03:36:46;;;;;;;;;;;9.70;99.90;;;;;;7404280;19;19922;-73
2023/05/29 03:39:15;;;;;;;2.90;0.70;;;9.80;99.90;;;;;;7402766;19;19911;-73
2023/05/29 03:41:44;;;;;;;2.00;0.85;;;9.80;99.90;;;;;;7401747;19;19922;-72
2023/05/29 03:44:13;;;;;;;1.80;0.50;;;9.80;99.90;;;;;;7400849;19;19919;-72
2023/05/29 03:46:42;;;;;;;1.75;0.60;;;9.80;99.90;;;;;;7402095;19;20643;-72
2023/05/29 03:49:14;;;;;;;1.77;0.32;;;9.70;99.90;;;;;;7400195;19;19935;-72
2023/05/29 03:51:43;;;;;;;1.75;0.50;;;9.70;99.90;;;;;;7400742;19;19919;-73
2023/05/29 03:54:12;;;;;;;2.33;0.57;;;9.70;99.90;;;;;;7400783;19;20388;-72
2023/05/29 03:56:41;;;;;;;0.65;0.30;;;9.60;99.90;;;;;;7400705;19;19922;-72
2023/05/29 03:59:10;;;;;;;2.42;0.60;;;9.70;99.90;;;;;;7400575;19;20533;-72
2023/05/29 04:01:39;;;;;;;1.67;0.40;;;9.60;99.90;;;;;;7399315;19;19970;-72
2023/05/29 04:04:08;;;;;;;1.85;0.65;;;9.70;99.90;;;;;;7401076;19;19914;-72
2023/05/29 04:06:41;;;;;;;1.58;0.50;;;9.60;99.90;;;;;;7399732;19;20351;-73
2023/05/29 04:09:10;;;;;;;1.30;0.40;;;9.70;99.90;;;;;;7400694;19;19918;-73
2023/05/29 04:11:41;;;;;;;1.02;0.40;;;9.70;99.90;;;;;;7402492;19;20027;-73
2023/05/29 04:14:11;;;;;;;;;;;9.70;99.90;;;;;;7408840;19;19974;-72
2023/05/29 04:16:40;;;;;;;1.63;0.55;;;9.80;99.90;;;;;;7407678;19;19950;-72
2023/05/29 04:19:09;;;;;;;1.20;0.40;;;9.60;99.90;;;;;;7407321;19;19915;-72
2023/05/29 04:21:40;;;;;;;0.88;0.45;;;9.70;99.90;;;;;;7407343;19;19925;-73
2023/05/29 04:24:10;;;;;;;1.88;0.43;;;9.80;99.90;;;;;;7405392;19;20003;-72
2023/05/29 04:26:40;;;;;;;3.38;0.60;;;9.90;99.90;;;;;;7405839;19;19919;-72
2023/05/29 04:29:12;;;;;;;1.23;0.50;;;9.90;99.90;;;;;;7404090;19;20471;-72
2023/05/29 04:31:41;;;;;;;1.30;0.50;;;9.90;99.90;;;;;;7406088;19;19914;-72
2023/05/29 04:34:10;;;;;;;1.02;0.50;;;10.00;99.90;;;;;;7405109;19;19958;-72
2023/05/29 04:36:43;;;;;;;1.48;0.30;;;10.00;99.90;;;;;;7406557;19;19922;-72
2023/05/29 04:39:12;;;;;;;1.30;0.50;;;10.00;99.90;;;;;;7407879;19;19926;-73
2023/05/29 04:41:42;;;;;;;1.88;0.45;;;10.10;99.90;;;;;;7407422;19;19950;-73
2023/05/29 04:44:13;;;;;;;2.08;0.75;;;10.00;99.90;;;;;;7405835;19;20305;-72
2023/05/29 04:46:43;;;;;;;1.30;0.52;;;10.10;99.90;;;;;;7407118;19;19967;-72
2023/05/29 04:49:13;;;;;;;3.08;0.82;;;10.20;99.90;;;;;;7400231;19;19926;-72
2023/05/29 04:51:46;;;;;;;2.05;0.40;;;10.00;99.90;;;;;;7406876;19;19927;-72
2023/05/29 04:54:16;;;;;;;1.42;0.50;;;10.20;99.90;;;;;;7404094;19;19934;-72
2023/05/29 04:56:45;;;;;;;3.13;0.55;;;10.40;99.90;;;;;;7403997;19;20291;-72
2023/05/29 04:59:15;;;;;;;1.20;0.40;;;10.30;99.90;;;;;;7405886;19;19938;-72
2023/05/29 05:01:45;;;;;;;1.67;0.55;;;10.40;99.90;;;;;;7404806;19;19918;-72
2023/05/29 05:04:14;;;;;;;1.83;0.55;;;10.40;99.90;;;;;;7405321;19;19988;-72
2023/05/29 05:06:46;;;;;;;0.90;0.50;;;10.50;99.90;;;;;;7404398;19;19943;-72
2023/05/29 05:09:15;;;;;;;2.03;0.60;;;10.50;99.90;;;;;;7405661;19;19953;-73
2023/05/29 05:11:44;;;;;;;1.75;0.88;;;10.60;99.90;;;;;;7406378;19;19951;-72
2023/05/29 05:14:14;;;;;;;3.67;0.80;;;10.50;99.90;;;;;;7404991;19;20332;-72
2023/05/29 05:16:43;;;;;;;1.10;0.80;;;10.60;99.90;;;;;;7404991;19;19935;-72
2023/05/29 05:19:12;;;;;;;2.17;0.50;;;10.50;99.90;;;;;;7404464;19;19930;-73
2023/05/29 05:21:41;;;;;;;3.03;0.70;;;10.60;99.90;;;;;;7400629;19;19918;-72
2023/05/29 05:24:12;;;;;;;1.95;0.50;;;10.70;99.90;;;;;;7403668;19;20369;-73
2023/05/29 05:26:41;;;;;;;1.63;0.50;;;10.70;99.90;;;;;;7405019;19;19922;-72
2023/05/29 05:29:10;;;;;;;3.20;0.68;;;10.90;99.90;;;;;;7404811;19;19918;-72
2023/05/29 05:31:39;;;;;;;2.15;0.80;;;10.80;99.90;;;;;;7405992;19;19923;-73
2023/05/29 05:34:08;;;;;;;2.75;0.60;;;10.90;99.90;;;;;;7405181;19;20786;-72
2023/05/29 05:36:37;;;;;;;2.50;0.88;;;10.80;99.90;;;;;;7405963;19;20110;-73
2023/05/29 05:39:07;;;;;;;2.08;0.57;;;10.90;99.90;;;;;;7404828;19;19910;-72
2023/05/29 05:41:38;;;;;;;2.42;0.70;;;10.90;99.90;;;;;;7405363;19;19943;-74
2023/05/29 05:44:07;;;;;;;1.70;0.70;;;11.20;99.90;;;;;;7404702;19;19935;-73
2023/05/29 05:46:36;;;;;;;2.97;1.10;;;11.10;99.90;;;;;;7405113;19;20690;-72
2023/05/29 05:49:05;;;;;;;2.80;1.05;;;11.10;99.90;;;;;;7402583;19;20237;-73
2023/05/29 05:51:35;;;;;;;2.40;0.60;;;11.00;99.90;;;;;;7403609;19;19978;-73
2023/05/29 05:54:04;;;;;;;2.47;0.60;;;11.00;99.90;;;;;;7403438;19;19990;-72
2023/05/29 05:56:33;;;;;;;1.48;0.57;;;11.20;99.90;;;;;;7402893;19;19922;-72
2023/05/29 05:59:05;;;;;;;1.60;0.65;;;11.20;99.90;;;;;;7404962;19;20262;-72
2023/05/29 06:01:34;;;;;;;3.25;0.80;;;11.30;99.90;;;;;;7404329;19;20411;-72
2023/05/29 06:04:03;;;;;;;2.25;0.70;;;11.20;99.90;;;;;;7403984;19;19934;-72
2023/05/29 06:06:33;;;;;;;2.33;0.60;;;11.30;99.90;;;;;;7402355;19;19956;-73
2023/05/29 06:09:04;;;;;;;3.20;0.73;;;11.40;99.90;;;;;;7404784;19;19922;-72
2023/05/29 06:11:33;;;;;;;1.65;0.80;;;11.40;99.90;;;;;;7403095;19;19922;-72
2023/05/29 06:14:05;;;;;;;2.45;0.65;;;11.50;99.90;;;;;;7403858;19;19956;-72
2023/05/29 06:16:35;;;;;;;3.17;0.70;;;11.50;99.90;;;;;;7402218;19;20223;-73
2023/05/29 06:19:04;;;;;;;1.70;0.52;;;11.60;99.90;;;;;;7404419;19;19910;-72
2023/05/29 06:21:33;;;;;;;3.20;0.77;;;11.70;99.90;;;;;;7404155;19;19930;-72
2023/05/29 06:24:02;;;;;;;2.05;0.70;;;11.60;99.90;;;;;;7404737;19;19990;-72
2023/05/29 06:26:32;;;;;;;4.03;0.80;;;11.70;99.90;;;;;;7404128;19;19918;-73
2023/05/29 06:29:03;;;;;;;4.03;0.80;;;11.70;99.90;;;;;;7403454;19;19922;-72
2023/05/29 06:31:33;;;;;;;3.05;0.80;;;11.90;99.90;;;;;;7403859;19;19929;-72
2023/05/29 06:34:02;;;;;;;2.28;0.70;;;11.90;99.90;;;;;;7401389;19;20003;-72
2023/05/29 06:36:32;;;;;;;4.95;0.95;;;12.00;99.90;;;;;;7403609;19;19919;-73
2023/05/29 06:39:01;;;;;;;1.42;0.60;;;12.10;99.90;;;;;;7402646;19;19921;-73
2023/05/29 06:41:30;;;;;;;2.42;0.70;;;12.00;99.90;;;;;;7402432;19;19923;-72
2023/05/29 06:44:00;;;;;;;1.95;0.85;;;13.30;99.90;;;;;;7402808;19;19986;-72
2023/05/29 06:46:31;;;;;;;2.40;0.68;;;12.30;99.90;;;;;;7403229;19;19919;-72
2023/05/29 06:49:00;;;;;;;4.05;0.98;;;12.40;99.90;;;;;;7401154;19;19922;-72
2023/05/29 06:51:30;;;;;;;1.92;0.77;;;12.40;99.90;;;;;;7403693;19;19923;-73
2023/05/29 06:53:59;;;;;;;2.70;0.80;;;12.20;99.90;;;;;;7403107;19;19922;-72
2023/05/29 06:56:30;;;;;;;2.58;0.98;;;12.40;99.90;;;;;;7402165;19;19934;-73
2023/05/29 06:58:59;;;;;;;2.30;0.63;;;12.30;99.90;;;;;;7402298;19;19945;-72
2023/05/29 07:01:30;;;;;;;2.92;0.90;;;12.50;99.90;;;;;;7402193;19;19911;-72
2023/05/29 07:03:59;;;;;;;2.65;1.00;;;12.30;99.90;;;;;;7401488;19;19926;-72
2023/05/29 07:06:28;;;;;;;2.75;0.70;;;12.40;99.90;;;;;;7401558;19;20404;-72
2023/05/29 07:08:57;;;;;;;3.38;0.70;;;12.40;99.90;;;;;;7403150;19;19981;-72
2023/05/29 07:11:26;;;;;;;4.55;0.82;;;12.40;99.90;;;;;;7402672;19;20383;-72
2023/05/29 07:13:56;;;;;;;1.02;0.50;;;12.40;99.90;;;;;;7402871;19;19959;-72
2023/05/29 07:16:25;;;;;;;3.10;0.85;;;12.70;99.90;;;;;;7400237;19;19947;-73
2023/05/29 07:18:58;;;;;;;2.28;0.70;;;12.70;99.90;;;;;;7401920;19;19929;-73
2023/05/29 07:21:27;;;;;;;2.20;0.70;;;12.70;99.90;;;;;;7403402;19;19926;-73
2023/05/29 07:23:56;;;;;;;3.30;0.82;;;13.00;99.90;;;;;;7402243;19;19918;-73
2023/05/29 07:26:25;;;;;;;1.88;0.70;;;12.70;99.90;;;;;;7403417;19;20605;-73
2023/05/29 07:28:54;;;;;;;3.67;0.70;;;12.80;99.90;;;;;;7401617;19;19926;-73
2023/05/29 07:31:23;;;;;;;5.10;0.73;;;12.90;99.90;;;;;;7401169;19;19923;-74
2023/05/29 07:33:52;;;;;;;2.70;0.70;;;13.00;99.90;;;;;;7401752;19;19970;-73
2023/05/29 07:36:23;;;;;;;2.20;0.77;;;12.90;99.90;;;;;;7398958;19;20329;-72
2023/05/29 07:38:53;;;;;;;2.97;0.52;;;13.10;99.90;;;;;;7401463;19;19918;-72
2023/05/29 07:41:22;;;;;;;2.88;0.70;;;13.00;99.90;;;;;;7400807;19;19937;-73
2023/05/29 07:43:52;;;;;;;2.97;0.70;;;13.20;99.90;;;;;;7400620;19;19927;-72
2023/05/29 07:46:21;;;;;;;2.28;0.70;;;13.30;99.90;;;;;;7403060;19;19914;-72
2023/05/29 07:48:50;;;;;;;3.58;1.13;;;13.30;99.90;;;;;;7405955;19;19939;-72
2023/05/29 07:51:19;;;;;;;1.80;0.63;;;13.50;99.90;;;;;;7407595;19;20294;-73
2023/05/29 07:53:50;;;;;;;2.00;0.70;;;13.50;99.90;;;;;;7406365;19;19919;-72
2023/05/29 07:56:19;;;;;;;4.18;0.88;;;13.50;99.90;;;;;;7403597;19;20344;-72
2023/05/29 07:58:48;;;;;;;2.17;0.75;;;13.40;99.90;;;;;;7406494;19;19978;-72
2023/05/29 08:01:17;;;;;;;3.60;0.70;;;13.50;99.90;;;;;;7408415;19;19938;-72
2023/05/29 08:03:47;;;;;;;1.88;0.80;;;13.60;99.90;;;;;;7407241;19;19922;-73
2023/05/29 08:06:16;;;;;;;3.45;1.00;;;13.40;99.90;;;;;;7405559;19;19956;-72
2023/05/29 08:08:45;;;;;;;2.53;0.68;;;13.60;99.90;;;;;;7407639;19;19918;-72
2023/05/29 08:11:17;;;;;;;2.30;0.60;;;13.50;99.90;;;;;;7406816;19;19926;-72
2023/05/29 08:13:46;;;;;;;1.67;0.70;;;13.40;99.90;;;;;;7407462;19;19914;-73
2023/05/29 08:16:17;;;;;;;3.30;0.70;;;13.60;99.90;;;;;;7403403;19;19919;-72
2023/05/29 08:18:46;;;;;;;1.65;0.60;;;13.70;99.90;;;;;;7404980;19;20347;-72
2023/05/29 08:21:15;;;;;;;3.38;0.85;;;13.80;99.90;;;;;;7407319;19;20396;-73
2023/05/29 08:23:44;;;;;;;3.33;1.02;;;13.80;99.90;;;;;;7407411;19;19915;-72
2023/05/29 08:26:16;;;;;;;1.77;0.75;;;14.00;99.90;;;;;;7407917;19;19943;-72
2023/05/29 08:28:45;;;;;;;2.10;1.10;;;14.20;99.90;;;;;;7406592;19;19930;-72
2023/05/29 08:31:14;;;;;;;3.63;0.80;;;14.30;99.90;;;;;;7404383;19;19942;-73
2023/05/29 08:33:43;;;;;;;2.47;0.80;;;14.40;99.90;;;;;;7406543;19;19927;-73
2023/05/29 08:36:12;;;;;;;2.53;0.68;;;14.40;99.90;;;;;;7403463;19;19927;-72
2023/05/29 08:38:41;;;;;;;2.10;0.70;;;14.50;99.90;;;;;;7405685;19;19955;-72
2023/05/29 08:41:10;;;;;;;3.20;0.90;;;14.50;99.90;;;;;;7406614;19;20325;-72
2023/05/29 08:43:45;;;;;;;2.08;0.63;;;14.50;99.90;;;;;;7405219;19;19922;-73
2023/05/29 08:46:16;;;;;;;3.15;0.73;;;14.60;99.90;;;;;;7406266;19;19919;-73
2023/05/29 08:48:50;;;;;;;3.70;0.77;;;14.60;99.90;;;;;;7403343;19;19926;-73
2023/05/29 08:51:23;;;;;;;2.72;0.68;;;14.70;99.90;;;;;;7406193;19;20309;-72
2023/05/29 08:53:54;;;;;;;2.40;0.70;;;14.60;99.90;;;;;;7405628;19;19919;-73
2023/05/29 08:56:23;;;;;;;1.98;0.75;;;14.90;99.90;;;;;;7403866;19;19918;-73
2023/05/29 08:58:56;;;;;;;1.80;0.80;;;14.90;99.90;;;;;;7403107;19;19923;-72
2023/05/29 09:01:26;;;;;;;2.95;0.93;;;14.90;99.90;;;;;;7404926;19;20311;-73
2023/05/29 09:03:55;;;;;;;1.20;0.63;;;14.70;99.90;;;;;;7405359;19;19919;-72
2023/05/29 09:06:25;;;;;;;2.08;0.70;;;14.60;99.90;;;;;;7406534;19;19915;-73
2023/05/29 09:08:55;;;;;;;2.35;0.75;;;14.70;99.90;;;;;;7406257;19;19931;-72
2023/05/29 09:11:25;;;;;;;2.67;0.80;;;14.80;99.90;;;;;;7404631;19;20004;-72
2023/05/29 09:13:58;;;;;;;1.45;0.50;;;14.80;99.90;;;;;;7406101;19;19914;-73
2023/05/29 09:16:27;;;;;;;3.72;0.98;;;14.80;99.90;;;;;;7403380;19;19922;-73
2023/05/29 09:19:06;;;;;;;2.40;0.85;;;14.90;99.90;;;;;;7405951;19;19943;-73
2023/05/29 09:21:36;;;;;;;1.75;0.57;;;15.00;99.90;;;;;;7406558;19;19970;-73
2023/05/29 09:24:08;;;;;;;3.47;0.90;;;15.10;99.90;;;;;;7406764;19;19982;-72
2023/05/29 09:26:38;;;;;;;4.00;0.90;;;15.00;99.90;;;;;;7404840;19;19919;-73
2023/05/29 09:29:12;;;;;;;1.83;0.80;;;15.10;99.90;;;;;;7404962;19;20344;-73
2023/05/29 09:31:49;;;;;;;1.58;0.60;;;15.00;99.90;;;;;;7404579;19;19915;-73
2023/05/29 09:34:18;;;;;;;1.67;0.80;;;15.10;99.90;;;;;;7402761;19;19941;-73
2023/05/29 09:36:47;;;;;;;3.10;0.80;;;15.40;99.90;;;;;;7401688;19;19989;-72
2023/05/29 09:39:16;;;;;;;4.60;0.90;;;15.30;99.90;;;;;;7404292;19;19918;-72
2023/05/29 09:41:45;;;;;;;1.70;0.80;;;15.40;99.90;;;;;;7403444;19;19919;-72
2023/05/29 09:44:20;;;;;;;2.55;0.60;;;15.40;99.90;;;;;;7403821;19;19951;-72
2023/05/29 09:46:52;;;;;;;3.05;0.93;;;15.40;99.90;;;;;;7404212;19;19954;-73
2023/05/29 09:49:26;;;;;;;1.67;0.60;;;15.60;99.90;;;;;;7402923;19;20013;-73
2023/05/29 09:51:59;;;;;;;1.70;0.70;;;15.60;99.90;;;;;;7404848;19;19946;-73
2023/05/29 09:54:32;;;;;;;3.95;0.85;;;15.60;99.90;;;;;;7404859;19;19906;-73
2023/05/29 09:57:03;;;;;;;1.70;0.70;;;15.70;99.90;;;;;;7402655;19;19930;-73
2023/05/29 09:59:37;;;;;;;5.07;1.13;;;15.70;99.90;;;;;;7402342;19;19919;-73
2023/05/29 10:02:07;;;;;;;1.55;0.50;;;15.80;99.90;;;;;;7403235;19;19974;-73
2023/05/29 10:04:38;;;;;;;1.42;0.80;;;15.70;99.90;;;;;;7403219;19;19936;-73
2023/05/29 10:07:11;;;;;;;2.50;0.77;;;15.80;99.90;;;;;;7405026;19;19922;-71
2023/05/29 10:09:44;;;;;;;2.58;1.00;;;15.90;99.90;;;;;;7402972;19;19918;-73
2023/05/29 10:12:14;;;;;;;2.45;0.90;;;15.90;99.90;;;;;;7404720;19;20248;-73
2023/05/29 10:14:48;;;;;;;1.83;0.65;;;16.00;99.90;;;;;;7404214;19;19922;-73
2023/05/29 10:17:18;;;;;;;1.92;0.80;;;15.90;99.90;;;;;;7402608;19;20266;-73
2023/05/29 10:19:51;;;;;;;1.40;0.73;;;15.90;99.90;;;;;;7403582;19;19923;-73
2023/05/29 10:22:22;;;;;;;2.38;1.00;;;15.90;99.90;;;;;;7403592;19;19923;-71
2023/05/29 10:24:53;;;;;;;3.22;0.70;;;15.80;99.90;;;;;;7404353;19;19919;-70
2023/05/29 10:27:22;;;;;;;2.17;0.70;;;15.90;99.90;;;;;;7402684;19;19978;-71
2023/05/29 10:30:00;;;;;;;1.75;0.70;;;15.90;99.90;;;;;;7403317;19;19919;-71
2023/05/29 10:32:39;;;;;;;2.58;0.90;;;15.90;99.90;;;;;;7402040;19;19918;-71
2023/05/29 10:35:16;;;;;;;2.72;0.73;;;15.90;99.90;;;;;;7402222;19;19923;-73
2023/05/29 10:37:52;;;;;;;1.92;0.60;;;16.10;99.90;;;;;;7400879;19;19918;-73
2023/05/29 10:40:26;;;;;;;3.28;0.68;;;16.20;99.90;;;;;;7403511;19;19982;-74
2023/05/29 10:42:58;;;;;;;2.70;0.80;;;16.10;99.90;;;;;;7401031;19;19977;-73
2023/05/29 10:45:53;;;;;;;1.98;0.60;;;16.10;99.90;;;;;;7403815;19;19918;-73
2023/05/29 10:48:43;;;;;;;2.55;0.90;;;16.40;99.90;;;;;;7399893;19;19918;-72
2023/05/29 10:51:27;;;;;;;2.67;0.73;;;16.40;99.90;;;;;;7403829;19;19971;-73
2023/05/29 10:53:57;;;;;;;1.55;0.57;;;16.60;99.90;;;;;;7402749;19;19923;-72
2023/05/29 10:56:32;;;;;;;2.50;0.68;;;17.00;99.90;;;;;;7402269;19;19935;-73
2023/05/29 10:59:03;;;;;;;2.88;0.90;;;16.50;99.90;;;;;;7401716;19;19918;-72
2023/05/29 11:01:36;;;;;;;2.58;0.93;;;16.70;99.90;;;;;;7401858;19;19993;-72
2023/05/29 11:04:31;;;;;;;1.58;0.77;;;16.80;99.90;;;;;;7402479;19;19919;-73
2023/05/29 11:07:03;;;;;;;1.63;0.60;;;16.90;99.90;;;;;;7402376;19;19922;-72
2023/05/29 11:09:34;;;;;;;2.42;0.60;;;17.00;99.90;;;;;;7402054;19;19921;-73
2023/05/29 11:12:33;;;;;;;2.05;0.60;;;17.20;99.90;;;;;;7399664;19;19930;-72
2023/05/29 11:15:06;;;;;;;1.98;0.80;;;17.00;99.90;;;;;;7400130;19;19922;-73
2023/05/29 11:17:46;;;;;;;2.22;0.60;;;17.30;99.90;;;;;;7399612;19;19982;-72
2023/05/29 11:20:31;;;;;;;2.08;0.50;;;17.20;99.90;;;;;;7400983;19;19946;-73
2023/05/29 11:23:12;;;;;;;2.85;0.90;;;17.10;99.90;;;;;;7401512;19;19986;-73
2023/05/29 11:25:41;;;;;;;1.75;0.70;;;17.40;99.90;;;;;;7401676;19;19923;-73
2023/05/29 11:28:11;;;;;;;1.73;0.82;;;17.60;99.90;;;;;;7401314;19;20416;-73
2023/05/29 11:30:48;;;;;;;1.45;0.65;;;17.70;99.90;;;;;;7401531;19;20288;-73
2023/05/29 11:33:26;;;;;;;;;;;17.80;99.90;;;;;;7402395;19;20344;-72
2023/05/29 11:36:00;;;;;;;2.25;0.73;;;17.90;99.90;;;;;;7401352;19;19925;-73
2023/05/29 11:38:30;;;;;;;2.13;0.80;;;17.80;99.90;;;;;;7401879;19;19919;-73
2023/05/29 11:41:00;;;;;;;2.78;0.80;;;17.70;99.90;;;;;;7402168;19;19938;-73
2023/05/29 11:43:29;;;;;;;2.47;0.70;;;17.70;99.90;;;;;;7401527;19;19970;-73
2023/05/29 11:45:58;;;;;;;2.90;0.90;;;17.70;99.90;;;;;;7401475;19;19922;-73
2023/05/29 11:48:30;;;;;;;1.98;0.63;;;17.90;99.90;;;;;;7399665;19;19998;-73
2023/05/29 11:51:00;;;;;;;;;;;17.80;99.90;;;;;;7403011;19;19915;-73
2023/05/29 11:53:29;;;;;;;3.47;1.00;;;17.90;99.90;;;;;;7400667;19;19946;-73
2023/05/29 11:56:10;;;;;;;3.22;0.75;;;17.80;99.90;;;;;;7400869;19;20294;-73
2023/05/29 11:58:39;;;;;;;2.90;0.80;;;17.90;99.90;;;;;;7400759;19;19936;-73
2023/05/29 12:01:09;;;;;;;2.60;0.70;;;17.80;99.90;;;;;;7401377;19;19982;-73
2023/05/29 12:03:44;;;;;;;2.33;0.70;;;18.00;99.90;;;;;;7401675;19;19921;-73
2023/05/29 12:06:14;;;;;;;2.20;0.70;;;17.90;99.90;;;;;;7401719;19;19925;-73
2023/05/29 12:08:43;;;;;;;2.08;0.70;;;18.10;99.90;;;;;;7400839;19;19974;-73
2023/05/29 12:11:12;;;;;;;1.90;0.60;;;18.20;99.90;;;;;;7400938;19;20353;-73
2023/05/29 12:13:41;;;;;;;2.45;0.80;;;18.10;99.90;;;;;;7400780;19;19921;-73
2023/05/29 12:16:11;;;;;;;3.13;0.88;;;18.10;99.90;;;;;;7399251;19;19921;-73
2023/05/29 12:18:40;;;;;;;2.35;0.70;;;18.20;99.90;;;;;;7398764;19;19968;-73
2023/05/29 12:21:11;;;;;;;3.97;0.88;;;18.30;99.90;;;;;;7399513;19;19930;-73
2023/05/29 12:23:41;;;;;;;2.05;0.80;;;18.30;99.90;;;;;;7397863;19;20352;-73
2023/05/29 12:26:12;;;;;;;3.70;0.77;;;18.40;99.90;;;;;;7399415;19;19936;-73
2023/05/29 12:28:46;;;;;;;2.88;0.90;;;18.60;99.90;;;;;;7399460;19;19941;-73
2023/05/29 12:31:16;;;;;;;1.48;0.68;;;18.70;99.90;;;;;;7399685;19;19974;-73
2023/05/29 12:33:46;;;;;;;3.60;0.60;;;18.70;99.90;;;;;;7405913;19;19997;-73
2023/05/29 12:36:17;;;;;;;1.75;0.77;;;17.10;99.90;;;;;;7406978;19;19994;-73
2023/05/29 12:38:50;;;;;;;1.55;0.50;;;18.90;99.90;;;;;;7405280;19;19974;-73
2023/05/29 12:41:29;;;;;;;2.03;0.70;;;19.20;99.90;;;;;;7407699;19;19930;-73
2023/05/29 12:43:59;;;;;;;2.10;0.80;;;19.30;99.90;;;;;;7406461;19;19931;-73
2023/05/29 12:46:29;;;;;;;3.15;0.75;;;19.20;99.90;;;;;;7406515;19;19957;-73
2023/05/29 12:48:58;;;;;;;2.78;0.75;;;19.40;99.90;;;;;;7402652;19;19930;-73
2023/05/29 12:51:31;;;;;;;1.95;0.60;;;19.50;99.90;;;;;;7403565;19;19998;-73
2023/05/29 12:54:00;;;;;;;2.20;0.80;;;19.50;99.90;;;;;;7405799;19;19992;-73
2023/05/29 12:56:29;;;;;;;3.00;0.73;;;19.60;99.90;;;;;;7405556;19;19922;-73
2023/05/29 12:58:58;;;;;;;2.40;0.90;;;19.70;99.90;;;;;;7405643;19;19954;-73
2023/05/29 13:01:27;;;;;;;2.47;0.95;;;19.90;99.90;;;;;;7406739;19;20397;-73
2023/05/29 13:03:56;;;;;;;3.38;0.75;;;19.80;99.90;;;;;;7404846;19;19935;-73
2023/05/29 13:06:26;;;;;;;3.15;1.05;;;19.90;99.90;;;;;;7405400;19;19938;-73
2023/05/29 13:08:57;;;;;;;2.28;1.00;;;20.00;99.90;;;;;;7404875;19;20493;-73